Time;durP1;ratioP1;P1;durP2;ratioP2;P2;SDS_P1;SDS_P2;PMS_P1;PMS_P2;Temp;Humidity;BMP_temperature;BMP_pressure;BME280_temperature;BME280_humidity;BME280_pressure;Samples;Min_cycle;Max_cycle;Signal;HPM_P1;HPM_P2
2022/09/10 00:00:57;;;;;;;12.15;7.93;;;13.90;99.90;;;;;;5052622;28;20047;-81
2022/09/10 00:03:23;;;;;;;15.93;9.05;;;14.00;99.90;;;;;;5053403;28;20084;-80
2022/09/10 00:05:49;;;;;;;15.02;9.00;;;13.90;99.90;;;;;;5056792;28;20077;-81
2022/09/10 00:08:16;;;;;;;13.02;8.10;;;14.00;99.90;;;;;;5056969;28;20033;-80
2022/09/10 00:10:50;;;;;;;18.80;10.10;;;13.90;99.90;;;;;;5057273;28;20033;-81
2022/09/10 00:13:19;;;;;;;16.65;9.02;;;14.00;99.90;;;;;;5056110;28;20393;-81
2022/09/10 00:15:50;;;;;;;16.50;8.93;;;14.00;99.90;;;;;;5056483;28;20045;-81
2022/09/10 00:18:18;;;;;;;20.77;10.23;;;14.00;99.90;;;;;;5057143;28;20080;-81
2022/09/10 00:20:54;;;;;;;15.43;9.52;;;14.00;99.90;;;;;;5056661;28;20037;-81
2022/09/10 00:23:24;;;;;;;16.63;10.20;;;14.00;99.90;;;;;;5055284;28;20099;-81
2022/09/10 00:25:52;;;;;;;15.82;9.65;;;14.10;99.90;;;;;;5056064;28;20043;-81
2022/09/10 00:28:20;;;;;;;13.13;8.90;;;14.00;99.90;;;;;;5056754;28;20512;-81
2022/09/10 00:30:48;;;;;;;12.43;8.85;;;14.10;99.90;;;;;;5056950;28;20037;-81
2022/09/10 00:33:15;;;;;;;13.93;9.02;;;14.00;99.90;;;;;;5056290;28;20036;-81
2022/09/10 00:35:41;;;;;;;18.20;9.30;;;14.10;99.90;;;;;;5056341;28;20045;-81
2022/09/10 00:38:08;;;;;;;15.60;10.05;;;14.20;99.90;;;;;;5054877;28;20490;-81
2022/09/10 00:40:35;;;;;;;16.80;9.93;;;14.20;99.90;;;;;;5054409;28;20513;-81
2022/09/10 00:43:01;;;;;;;17.55;10.52;;;14.20;99.90;;;;;;5056664;28;20530;-80
2022/09/10 00:45:30;;;;;;;16.55;9.80;;;14.30;99.90;;;;;;5070379;28;20096;-80
2022/09/10 00:48:03;;;;;;;23.35;11.10;;;14.30;99.90;;;;;;5071370;28;20101;-80
2022/09/10 00:50:32;;;;;;;17.92;10.02;;;14.30;99.90;;;;;;5067687;28;20095;-80
2022/09/10 00:53:01;;;;;;;16.67;10.88;;;14.30;99.90;;;;;;5056696;28;20069;-80
2022/09/10 00:55:27;;;;;;;20.33;11.13;;;14.40;99.90;;;;;;5056091;28;20052;-81
2022/09/10 00:57:57;;;;;;;20.73;11.35;;;14.50;99.90;;;;;;5055841;28;20401;-81
2022/09/10 01:00:23;;;;;;;18.10;11.65;;;14.50;99.90;;;;;;5056159;28;20739;-81
2022/09/10 01:02:49;;;;;;;17.63;11.27;;;14.50;99.90;;;;;;5055351;28;20127;-81
2022/09/10 01:05:16;;;;;;;16.83;11.15;;;14.60;99.90;;;;;;5056118;28;20084;-81
2022/09/10 01:07:43;;;;;;;17.55;11.63;;;14.60;99.90;;;;;;5038172;28;20067;-80
2022/09/10 01:10:13;;;;;;;19.92;11.95;;;14.70;99.90;;;;;;5038122;28;20107;-80
2022/09/10 01:13:16;;;;;;;17.45;11.05;;;14.60;99.90;;;;;;5054510;28;20112;-80
2022/09/10 01:16:02;;;;;;;16.35;11.57;;;14.60;99.90;;;;;;5056300;28;20044;-81
2022/09/10 01:18:42;;;;;;;19.38;11.50;;;14.70;99.90;;;;;;5055845;28;20109;-81
2022/09/10 01:21:20;;;;;;;23.30;10.48;;;14.70;99.90;;;;;;5056180;28;20428;-81
2022/09/10 01:24:12;;;;;;;17.65;11.68;;;14.60;99.90;;;;;;5056040;28;20123;-81
2022/09/10 01:26:55;;;;;;;17.05;11.52;;;14.70;99.90;;;;;;5055441;28;20032;-81
2022/09/10 01:29:46;;;;;;;18.52;10.55;;;14.70;99.90;;;;;;5055742;28;20045;-81
2022/09/10 01:32:16;;;;;;;18.00;10.75;;;14.70;99.90;;;;;;5056013;28;20061;-81
2022/09/10 01:35:08;;;;;;;15.75;10.57;;;14.70;99.90;;;;;;5054572;28;20112;-81
2022/09/10 01:37:36;;;;;;;;;;;14.80;99.90;;;;;;5051025;28;20057;-81
2022/09/10 01:40:03;;;;;;;19.73;10.65;;;14.80;99.90;;;;;;5055590;28;19939;-81
2022/09/10 01:42:30;;;;;;;20.50;10.40;;;14.80;99.90;;;;;;5055413;28;20436;-81
2022/09/10 01:44:56;;;;;;;21.17;12.20;;;14.80;99.90;;;;;;5054217;28;20051;-80
2022/09/10 01:47:53;;;;;;;19.10;10.38;;;14.80;99.90;;;;;;5054321;28;20112;-80
2022/09/10 01:50:19;;;;;;;17.08;11.48;;;14.80;99.90;;;;;;5055516;28;20041;-81
2022/09/10 01:53:18;;;;;;;17.42;10.98;;;14.80;99.90;;;;;;5055477;28;20086;-81
2022/09/10 01:56:09;;;;;;;16.25;10.75;;;14.90;99.90;;;;;;5055713;28;20082;-80
2022/09/10 01:58:40;;;;;;;19.83;11.77;;;14.90;99.90;;;;;;5054981;28;20048;-80
2022/09/10 02:01:19;;;;;;;16.52;12.05;;;14.80;99.90;;;;;;5055923;28;20087;-80
2022/09/10 02:03:49;;;;;;;19.27;10.65;;;14.80;99.90;;;;;;5055448;28;20040;-80
2022/09/10 02:06:18;;;;;;;20.15;11.50;;;14.80;99.90;;;;;;5053373;28;20177;-80
2022/09/10 02:08:47;;;;;;;19.83;12.05;;;14.80;99.90;;;;;;5056152;28;20535;-81
2022/09/10 02:11:14;;;;;;;21.45;11.65;;;14.80;99.90;;;;;;5054346;28;20516;-81
2022/09/10 02:13:41;;;;;;;19.75;10.88;;;14.80;99.90;;;;;;5053011;28;20045;-81
2022/09/10 02:16:25;;;;;;;20.50;11.48;;;14.80;99.90;;;;;;5054908;28;20049;-80
2022/09/10 02:18:51;;;;;;;18.33;10.57;;;14.90;99.90;;;;;;5054658;28;20037;-80
2022/09/10 02:21:17;;;;;;;16.55;10.88;;;14.80;99.90;;;;;;5055155;28;20041;-81
2022/09/10 02:23:51;;;;;;;21.10;10.35;;;14.80;99.90;;;;;;5054452;28;20049;-80
2022/09/10 02:26:17;;;;;;;16.70;10.70;;;14.80;99.90;;;;;;5053841;28;20045;-81
2022/09/10 02:28:42;;;;;;;18.15;10.82;;;14.90;99.90;;;;;;5054001;28;20052;-80
2022/09/10 02:31:09;;;;;;;18.17;10.50;;;14.80;99.90;;;;;;5053981;28;20413;-80
2022/09/10 02:33:34;;;;;;;16.27;10.45;;;14.80;99.90;;;;;;5054881;28;20090;-80
2022/09/10 02:36:01;;;;;;;17.33;10.25;;;14.80;99.90;;;;;;5054565;28;20087;-80
2022/09/10 02:38:28;;;;;;;17.05;10.32;;;14.80;99.90;;;;;;5052920;28;20037;-80
2022/09/10 02:40:55;;;;;;;18.42;10.63;;;14.80;99.90;;;;;;5055144;28;20052;-80
2022/09/10 02:43:21;;;;;;;21.15;12.70;;;14.80;99.90;;;;;;5054473;28;20394;-80
2022/09/10 02:45:46;;;;;;;17.92;11.63;;;14.70;99.90;;;;;;5054993;28;20087;-80
2022/09/10 02:48:12;;;;;;;18.70;10.98;;;14.70;99.90;;;;;;5054083;28;20304;-80
2022/09/10 02:50:38;;;;;;;19.90;10.40;;;14.70;99.90;;;;;;5053725;28;20033;-80
2022/09/10 02:53:04;;;;;;;19.17;11.93;;;14.80;99.90;;;;;;5054312;28;20043;-80
2022/09/10 02:55:30;;;;;;;19.08;11.15;;;14.80;99.90;;;;;;5053966;28;20120;-80
2022/09/10 02:57:57;;;;;;;21.10;10.27;;;14.80;99.90;;;;;;5054880;28;20049;-80
2022/09/10 03:00:23;;;;;;;21.35;11.27;;;14.80;99.90;;;;;;5053482;28;20079;-80
2022/09/10 03:02:49;;;;;;;17.08;10.70;;;14.80;99.90;;;;;;5054088;28;20069;-80
2022/09/10 03:05:15;;;;;;;19.52;11.25;;;14.90;99.90;;;;;;5054728;28;20041;-80
2022/09/10 03:07:42;;;;;;;16.80;10.52;;;14.90;99.90;;;;;;5053895;28;20044;-80
2022/09/10 03:10:09;;;;;;;20.30;11.57;;;14.90;99.90;;;;;;5054158;28;20505;-80
2022/09/10 03:12:35;;;;;;;23.27;11.05;;;14.90;99.90;;;;;;5053409;28;20059;-80
2022/09/10 03:15:01;;;;;;;17.48;10.30;;;14.90;99.90;;;;;;5055176;28;20044;-80
2022/09/10 03:17:27;;;;;;;18.40;11.48;;;14.90;99.90;;;;;;5055118;28;20100;-80
2022/09/10 03:19:52;;;;;;;21.88;12.10;;;14.90;99.90;;;;;;5054486;28;20088;-81
2022/09/10 03:22:18;;;;;;;18.42;10.85;;;14.90;99.90;;;;;;5053703;28;20061;-81
2022/09/10 03:24:46;;;;;;;20.52;11.85;;;14.90;99.90;;;;;;5055234;28;20052;-80
2022/09/10 03:27:14;;;;;;;21.30;11.10;;;14.90;99.90;;;;;;5053590;28;20037;-79
2022/09/10 03:29:40;;;;;;;24.70;12.27;;;14.80;99.90;;;;;;5052934;28;20405;-80
2022/09/10 03:32:06;;;;;;;23.65;11.60;;;14.90;99.90;;;;;;5052516;28;20048;-79
2022/09/10 03:34:32;;;;;;;16.88;11.63;;;14.90;99.90;;;;;;5053320;28;20033;-81
2022/09/10 03:36:57;;;;;;;20.48;11.10;;;15.00;99.90;;;;;;5054821;28;20124;-80
2022/09/10 03:39:23;;;;;;;20.30;10.95;;;14.90;99.90;;;;;;5048010;28;20032;-80
2022/09/10 03:41:49;;;;;;;27.45;13.10;;;15.00;99.90;;;;;;5061218;28;20037;-80
2022/09/10 03:44:16;;;;;;;21.13;11.20;;;15.00;99.90;;;;;;5060588;28;20107;-80
2022/09/10 03:46:41;;;;;;;20.92;11.68;;;15.10;99.90;;;;;;5060146;28;20043;-80
2022/09/10 03:49:07;;;;;;;20.52;12.73;;;15.00;99.90;;;;;;5077145;28;20056;-80
2022/09/10 03:51:34;;;;;;;17.73;11.80;;;15.00;99.90;;;;;;5077061;28;20053;-80
2022/09/10 03:53:59;;;;;;;18.13;11.30;;;15.00;99.90;;;;;;5076530;28;20064;-80
2022/09/10 03:56:26;;;;;;;20.98;11.82;;;15.10;99.90;;;;;;5077084;28;20055;-80
2022/09/10 03:58:52;;;;;;;19.17;11.00;;;15.10;99.90;;;;;;5040865;28;20033;-80
2022/09/10 04:01:18;;;;;;;19.83;11.05;;;15.10;99.90;;;;;;5034425;28;20167;-80
2022/09/10 04:03:45;;;;;;;20.42;11.73;;;15.10;99.90;;;;;;5050791;28;20094;-80
2022/09/10 04:06:12;;;;;;;19.83;11.75;;;15.00;99.90;;;;;;5050630;28;20045;-80
2022/09/10 04:08:38;;;;;;;18.27;9.98;;;15.20;99.90;;;;;;5050720;28;20041;-80
2022/09/10 04:11:05;;;;;;;22.83;11.38;;;15.20;99.90;;;;;;5050759;28;20048;-80
2022/09/10 04:13:31;;;;;;;23.15;11.90;;;15.20;99.90;;;;;;5050881;28;20099;-81
2022/09/10 04:15:59;;;;;;;23.73;11.93;;;15.10;99.90;;;;;;5033664;28;20029;-81
2022/09/10 04:18:26;;;;;;;21.58;11.75;;;15.10;99.90;;;;;;5050320;28;20041;-80
2022/09/10 04:20:53;;;;;;;18.75;12.05;;;15.20;99.90;;;;;;5050022;28;20486;-80
2022/09/10 04:23:18;;;;;;;22.58;12.02;;;15.20;99.90;;;;;;5049715;28;20037;-80
2022/09/10 04:25:45;;;;;;;22.58;12.80;;;15.20;99.90;;;;;;5033818;28;20379;-80
2022/09/10 04:28:12;;;;;;;22.15;11.48;;;15.20;99.90;;;;;;5033985;28;20393;-80
2022/09/10 04:30:39;;;;;;;23.52;12.73;;;15.10;99.90;;;;;;5033724;28;20037;-80
2022/09/10 04:33:05;;;;;;;25.80;11.90;;;15.10;99.90;;;;;;5049827;28;20051;-80
2022/09/10 04:35:31;;;;;;;22.10;12.82;;;15.10;99.90;;;;;;5051382;28;20037;-80
2022/09/10 04:37:57;;;;;;;22.08;11.68;;;15.10;99.90;;;;;;5033286;28;20056;-80
2022/09/10 04:40:22;;;;;;;24.70;12.57;;;15.10;99.90;;;;;;5051213;28;20124;-80
2022/09/10 04:42:48;;;;;;;26.38;12.18;;;15.10;99.90;;;;;;5033077;28;20037;-80
2022/09/10 04:45:14;;;;;;;26.17;12.93;;;15.10;99.90;;;;;;5033207;28;20041;-80
2022/09/10 04:47:39;;;;;;;29.05;14.30;;;15.20;99.90;;;;;;5050049;28;20442;-80
2022/09/10 04:50:06;;;;;;;28.27;12.23;;;15.20;99.90;;;;;;5034975;28;20457;-80
2022/09/10 04:52:33;;;;;;;28.67;12.52;;;15.20;99.90;;;;;;5053883;28;20493;-80
2022/09/10 04:54:58;;;;;;;25.30;14.43;;;15.10;99.90;;;;;;5054808;28;20490;-80
2022/09/10 04:57:24;;;;;;;30.42;12.70;;;15.10;99.90;;;;;;5053843;28;20043;-80
2022/09/10 04:59:52;;;;;;;25.85;12.50;;;15.10;99.90;;;;;;5054772;28;20119;-80
2022/09/10 05:02:18;;;;;;;23.27;13.00;;;15.20;99.90;;;;;;5036719;28;20040;-80
2022/09/10 05:04:44;;;;;;;24.92;13.10;;;15.10;99.90;;;;;;5053053;28;20409;-80
2022/09/10 05:07:09;;;;;;;28.00;12.55;;;15.10;99.90;;;;;;5053160;28;20095;-80
2022/09/10 05:09:35;;;;;;;25.23;13.10;;;15.20;99.90;;;;;;5054484;28;20090;-81
2022/09/10 05:12:01;;;;;;;25.95;12.45;;;15.20;99.90;;;;;;5053062;28;20490;-81
2022/09/10 05:14:28;;;;;;;25.90;13.23;;;15.20;99.90;;;;;;5057836;28;20040;-80
2022/09/10 05:16:54;;;;;;;25.52;13.95;;;15.30;99.90;;;;;;5055801;28;20040;-79
2022/09/10 05:19:20;;;;;;;28.27;14.55;;;15.20;99.90;;;;;;5057824;28;20124;-79
2022/09/10 05:21:49;;;;;;;26.45;14.80;;;15.20;99.90;;;;;;5068193;28;20040;-80
2022/09/10 05:24:15;;;;;;;31.88;14.07;;;15.30;99.90;;;;;;5053899;28;20128;-81
2022/09/10 05:26:42;;;;;;;29.55;14.60;;;15.20;99.90;;;;;;5054561;28;20600;-81
2022/09/10 05:29:07;;;;;;;26.45;14.13;;;15.30;99.90;;;;;;5055525;28;20033;-80
2022/09/10 05:31:34;;;;;;;27.75;15.23;;;15.20;99.90;;;;;;5053562;28;20458;-80
2022/09/10 05:34:00;;;;;;;24.67;13.48;;;15.30;99.90;;;;;;5053711;28;20044;-80
2022/09/10 05:36:27;;;;;;;25.77;14.13;;;15.20;99.90;;;;;;5055797;28;20041;-80
2022/09/10 05:38:53;;;;;;;28.42;14.10;;;15.30;99.90;;;;;;5054580;28;20052;-81
2022/09/10 05:41:20;;;;;;;28.67;14.27;;;15.20;99.90;;;;;;5056351;28;20427;-81
2022/09/10 05:43:47;;;;;;;26.23;13.88;;;15.20;99.90;;;;;;5053826;28;20039;-81
2022/09/10 05:46:12;;;;;;;29.88;14.20;;;15.30;99.90;;;;;;5055570;28;20047;-81
2022/09/10 05:48:39;;;;;;;30.73;15.30;;;15.30;99.90;;;;;;5054589;28;20116;-81
2022/09/10 05:51:06;;;;;;;33.65;15.15;;;15.30;99.90;;;;;;5070485;28;20033;-81
2022/09/10 05:53:32;;;;;;;26.27;13.93;;;15.30;99.90;;;;;;5054253;28;20048;-81
2022/09/10 05:55:58;;;;;;;28.38;14.45;;;15.20;99.90;;;;;;5054454;28;20120;-81
2022/09/10 05:58:23;;;;;;;32.58;14.93;;;15.30;99.90;;;;;;5055094;28;20127;-81
2022/09/10 06:00:50;;;;;;;23.30;14.95;;;15.30;99.90;;;;;;5054757;28;20409;-81
2022/09/10 06:03:16;;;;;;;32.28;16.13;;;15.30;99.90;;;;;;5055143;28;20041;-81
2022/09/10 06:05:49;;;;;;;32.63;15.05;;;15.30;99.90;;;;;;5054347;28;20044;-81
2022/09/10 06:08:15;;;;;;;25.40;14.10;;;15.40;99.90;;;;;;5052240;28;20057;-81
2022/09/10 06:10:41;;;;;;;30.75;14.90;;;15.50;99.90;;;;;;5052403;28;20048;-81
2022/09/10 06:13:07;;;;;;;32.55;14.27;;;15.50;99.90;;;;;;5051915;28;20052;-81
2022/09/10 06:15:34;;;;;;;29.52;15.32;;;15.50;99.90;;;;;;5035616;28;20413;-81
2022/09/10 06:18:00;;;;;;;31.48;14.60;;;15.50;99.90;;;;;;5036666;28;20044;-81
2022/09/10 06:20:26;;;;;;;33.83;15.52;;;15.50;99.90;;;;;;5041499;28;20045;-81
2022/09/10 06:22:53;;;;;;;30.60;14.93;;;15.60;99.90;;;;;;5079295;28;20080;-81
2022/09/10 06:25:19;;;;;;;29.15;14.50;;;15.60;99.90;;;;;;5062219;28;20059;-81
2022/09/10 06:27:45;;;;;;;28.23;15.05;;;15.60;99.90;;;;;;5079422;28;20025;-81
2022/09/10 06:30:11;;;;;;;31.67;15.95;;;15.60;99.90;;;;;;5078855;28;20290;-81
2022/09/10 06:32:38;;;;;;;30.35;14.82;;;15.70;99.90;;;;;;5078700;28;20090;-81
2022/09/10 06:35:04;;;;;;;28.20;15.45;;;15.70;99.90;;;;;;5077443;28;20092;-81
2022/09/10 06:37:33;;;;;;;33.63;15.32;;;15.70;99.90;;;;;;5074042;28;20041;-81
2022/09/10 06:39:59;;;;;;;31.45;14.70;;;15.80;99.90;;;;;;5051729;28;20041;-81
2022/09/10 06:42:25;;;;;;;30.25;15.55;;;15.80;99.90;;;;;;5052438;28;20041;-80
2022/09/10 06:44:51;;;;;;;26.58;15.73;;;15.90;99.90;;;;;;5052691;28;20416;-80
2022/09/10 06:47:17;;;;;;;29.95;14.90;;;15.90;99.90;;;;;;5052709;28;20527;-80
2022/09/10 06:49:43;;;;;;;30.60;14.43;;;16.00;99.90;;;;;;5052433;28;20124;-80
2022/09/10 06:52:10;;;;;;;29.92;14.98;;;16.00;99.90;;;;;;5050671;28;20120;-80
2022/09/10 06:54:36;;;;;;;26.05;13.70;;;16.00;99.90;;;;;;5051087;28;20048;-80
2022/09/10 06:57:03;;;;;;;24.83;13.60;;;16.10;99.90;;;;;;5051495;28;20045;-80
2022/09/10 06:59:30;;;;;;;28.08;15.10;;;16.10;99.90;;;;;;5051246;28;20098;-81
2022/09/10 07:01:56;;;;;;;26.10;13.85;;;16.20;99.90;;;;;;5051123;28;20045;-81
2022/09/10 07:04:22;;;;;;;22.10;14.07;;;16.20;99.90;;;;;;5050977;28;20469;-81
2022/09/10 07:06:47;;;;;;;26.67;14.05;;;16.10;99.90;;;;;;5051284;28;20378;-81
2022/09/10 07:09:13;;;;;;;27.27;15.40;;;16.20;99.90;;;;;;5034286;28;20095;-81
2022/09/10 07:11:39;;;;;;;29.70;13.50;;;16.20;99.90;;;;;;5050630;28;20505;-80
2022/09/10 07:14:05;;;;;;;26.80;13.52;;;16.20;99.90;;;;;;5034686;28;20084;-81
2022/09/10 07:16:31;;;;;;;22.30;13.70;;;16.20;99.90;;;;;;5034229;28;20116;-81
2022/09/10 07:18:58;;;;;;;27.52;13.77;;;16.20;99.90;;;;;;5051411;28;20041;-81
2022/09/10 07:21:26;;;;;;;21.77;13.93;;;16.20;99.90;;;;;;5050630;28;20041;-82
2022/09/10 07:24:00;;;;;;;29.17;13.52;;;16.30;99.90;;;;;;5051017;28;20045;-81
2022/09/10 07:26:26;;;;;;;28.40;14.57;;;16.30;99.90;;;;;;5052233;28;20049;-81
2022/09/10 07:28:52;;;;;;;24.60;14.20;;;16.30;99.90;;;;;;5051123;28;20067;-81
2022/09/10 07:31:29;;;;;;;23.60;13.45;;;16.30;99.90;;;;;;5033787;28;20505;-81
2022/09/10 07:33:56;;;;;;;23.85;13.43;;;16.30;99.90;;;;;;5033863;28;20513;-81
2022/09/10 07:36:23;;;;;;;23.20;13.85;;;16.30;99.90;;;;;;5033702;28;20389;-81
2022/09/10 07:38:53;;;;;;;24.75;13.48;;;16.40;99.90;;;;;;5050390;28;20047;-81
2022/09/10 07:41:18;;;;;;;23.48;13.85;;;16.50;99.90;;;;;;5050264;28;20060;-81
2022/09/10 07:43:45;;;;;;;25.95;13.32;;;16.60;99.90;;;;;;5033446;28;20102;-81
2022/09/10 07:46:16;;;;;;;23.20;13.80;;;16.60;99.90;;;;;;5050035;28;20594;-81
2022/09/10 07:48:42;;;;;;;24.58;13.13;;;16.70;99.90;;;;;;5050805;28;20047;-81
2022/09/10 07:51:09;;;;;;;23.73;12.80;;;16.70;99.90;;;;;;5050248;28;20033;-82
2022/09/10 07:53:35;;;;;;;21.60;13.52;;;16.70;99.90;;;;;;5033267;28;20408;-82
2022/09/10 07:56:02;;;;;;;22.45;12.73;;;16.80;99.90;;;;;;5033699;28;20041;-82
2022/09/10 07:58:30;;;;;;;23.33;14.50;;;16.90;99.90;;;;;;5050170;28;20146;-83
2022/09/10 08:00:57;;;;;;;19.77;11.65;;;17.00;99.90;;;;;;5050718;28;20052;-83
2022/09/10 08:03:23;;;;;;;23.42;12.52;;;17.10;99.90;;;;;;5050318;28;20044;-83
2022/09/10 08:05:49;;;;;;;22.20;12.57;;;17.20;99.90;;;;;;5050641;28;20044;-83
2022/09/10 08:08:15;;;;;;;22.63;11.93;;;17.20;99.90;;;;;;5051929;28;20045;-82
2022/09/10 08:10:41;;;;;;;18.52;11.52;;;17.20;99.90;;;;;;5051876;28;20040;-82
2022/09/10 08:13:06;;;;;;;16.98;10.48;;;17.20;99.90;;;;;;5050222;28;20489;-82
2022/09/10 08:15:33;;;;;;;17.52;10.85;;;17.10;99.90;;;;;;5033607;28;20052;-82
2022/09/10 08:17:59;;;;;;;15.45;10.32;;;17.10;99.90;;;;;;5051929;28;20045;-82
2022/09/10 08:20:25;;;;;;;23.92;11.13;;;17.20;99.90;;;;;;5051517;28;20087;-82
2022/09/10 08:22:51;;;;;;;25.08;11.50;;;17.30;99.90;;;;;;5050084;28;20094;-82
2022/09/10 08:25:19;;;;;;;18.45;9.77;;;17.40;99.90;;;;;;5054212;28;20637;-82
2022/09/10 08:27:45;;;;;;;20.38;11.52;;;17.60;99.90;;;;;;5054342;28;20059;-82
2022/09/10 08:30:11;;;;;;;17.20;10.82;;;17.90;99.90;;;;;;5054171;28;20041;-78
2022/09/10 08:32:37;;;;;;;17.60;11.07;;;18.00;99.90;;;;;;5054984;28;20334;-82
2022/09/10 08:35:03;;;;;;;19.98;10.07;;;18.10;99.90;;;;;;5053828;28;20041;-80
2022/09/10 08:37:31;;;;;;;21.48;9.98;;;18.20;99.90;;;;;;5055531;28;20036;-81
2022/09/10 08:39:57;;;;;;;14.82;9.02;;;18.30;99.90;;;;;;5054434;28;20044;-81
2022/09/10 08:42:38;;;;;;;19.17;9.82;;;18.40;99.90;;;;;;5054883;28;20037;-81
2022/09/10 08:45:10;;;;;;;18.17;9.75;;;18.40;99.90;;;;;;5070480;28;20067;-81
2022/09/10 08:48:18;;;;;;;11.98;8.32;;;18.40;99.90;;;;;;5070492;28;20131;-77
2022/09/10 08:50:54;;;;;;;14.18;9.25;;;18.40;99.90;;;;;;5015000;28;20060;-81
2022/09/10 08:53:24;;;;;;;11.93;7.75;;;18.30;99.90;;;;;;5053784;28;20501;-82
2022/09/10 08:55:57;;;;;;;12.80;7.95;;;18.40;99.90;;;;;;5054069;28;20505;-82
2022/09/10 08:58:42;;;;;;;18.17;10.13;;;18.40;99.90;;;;;;5070424;28;20048;-82
2022/09/10 09:01:14;;;;;;;15.52;8.70;;;18.50;99.90;;;;;;5053886;28;20053;-81
2022/09/10 09:03:46;;;;;;;19.60;9.57;;;18.30;99.90;;;;;;5053587;28;20044;-82
2022/09/10 09:06:32;;;;;;;18.33;9.85;;;18.20;99.90;;;;;;5071064;28;20108;-82
2022/09/10 09:09:00;;;;;;;14.38;8.93;;;18.00;99.90;;;;;;5053948;28;20493;-82
2022/09/10 09:11:49;;;;;;;17.00;9.50;;;18.10;99.90;;;;;;5053491;28;20069;-82
2022/09/10 09:14:26;;;;;;;16.20;9.60;;;18.30;99.90;;;;;;5053702;28;20390;-82
2022/09/10 09:17:20;;;;;;;14.60;9.45;;;18.50;99.90;;;;;;5053499;28;20048;-82
2022/09/10 09:20:24;;;;;;;14.27;9.35;;;18.60;99.90;;;;;;5053384;28;20037;-82
2022/09/10 09:23:13;;;;;;;12.77;8.52;;;18.70;99.90;;;;;;5053775;28;20076;-82
2022/09/10 09:25:49;;;;;;;17.17;9.30;;;18.60;99.90;;;;;;5031012;28;20053;-82
2022/09/10 09:28:28;;;;;;;11.02;8.32;;;18.70;99.90;;;;;;5053261;28;20044;-82
2022/09/10 09:30:56;;;;;;;14.02;8.57;;;18.80;99.90;;;;;;5037020;28;20111;-82
2022/09/10 09:33:23;;;;;;;17.08;8.75;;;18.90;99.90;;;;;;5053096;28;20080;-82
2022/09/10 09:35:57;;;;;;;10.38;7.70;;;19.10;99.90;;;;;;5052905;28;20033;-81
2022/09/10 09:38:26;;;;;;;15.30;7.82;;;19.70;99.90;;;;;;5053660;28;20037;-81
2022/09/10 09:40:57;;;;;;;12.20;7.80;;;20.20;99.90;;;;;;5053628;28;20036;-82
2022/09/10 09:43:51;;;;;;;16.08;8.65;;;20.80;99.90;;;;;;5053078;28;20178;-83
2022/09/10 09:46:20;;;;;;;15.40;8.30;;;21.50;99.90;;;;;;5053302;28;20054;-83
2022/09/10 09:48:46;;;;;;;13.88;7.80;;;22.00;99.90;;;;;;5052965;28;20067;-83
2022/09/10 09:51:20;;;;;;;9.63;7.15;;;21.80;99.90;;;;;;5044581;28;20051;-83
2022/09/10 09:53:57;;;;;;;10.32;7.25;;;21.30;99.90;;;;;;5056032;28;20127;-83
2022/09/10 09:56:36;;;;;;;12.98;7.30;;;20.80;99.90;;;;;;5073118;28;20089;-82
2022/09/10 09:59:20;;;;;;;9.98;6.70;;;20.30;99.90;;;;;;5056192;28;20052;-83
2022/09/10 10:01:46;;;;;;;10.98;6.97;;;20.00;99.90;;;;;;5073118;28;20482;-82
2022/09/10 10:04:22;;;;;;;14.18;6.82;;;19.90;99.90;;;;;;5056776;28;20052;-82
2022/09/10 10:06:54;;;;;;;8.63;6.20;;;20.00;99.90;;;;;;5083025;28;20038;-81
2022/09/10 10:09:30;;;;;;;11.52;5.93;;;20.10;99.90;;;;;;5082687;28;20044;-81
2022/09/10 10:12:03;;;;;;;9.30;6.18;;;20.10;99.90;;;;;;5097797;28;20020;-81
2022/09/10 10:14:42;;;;;;;9.73;6.10;;;20.10;99.90;;;;;;5091073;28;20045;-81
2022/09/10 10:17:31;;;;;;;10.63;6.10;;;20.20;99.90;;;;;;5070311;28;20040;-81
2022/09/10 10:20:04;;;;;;;8.80;5.63;;;20.40;99.90;;;;;;5053564;28;20094;-81
2022/09/10 10:22:30;;;;;;;8.57;5.45;;;20.50;99.90;;;;;;5056818;28;20048;-81
2022/09/10 10:24:59;;;;;;;8.02;4.60;;;20.60;99.90;;;;;;5073141;28;20055;-81
2022/09/10 10:27:34;;;;;;;10.93;4.40;;;20.80;99.90;;;;;;5071127;28;20465;-81
2022/09/10 10:30:02;;;;;;;7.95;4.30;;;20.90;99.90;;;;;;5053635;28;20045;-81
2022/09/10 10:32:37;;;;;;;6.35;3.65;;;21.00;99.90;;;;;;5034809;28;20037;-82
2022/09/10 10:35:12;;;;;;;10.15;4.85;;;21.00;99.90;;;;;;5036108;28;20090;-82
2022/09/10 10:37:57;;;;;;;9.45;5.13;;;21.10;99.90;;;;;;5051904;28;20049;-83
2022/09/10 10:40:26;;;;;;;7.85;4.70;;;21.10;99.90;;;;;;5072984;28;20078;-80
2022/09/10 10:43:14;;;;;;;8.73;5.15;;;21.00;99.90;;;;;;5058237;28;20044;-81
2022/09/10 10:45:57;;;;;;;7.28;4.80;;;20.90;99.90;;;;;;5045346;28;20067;-81
2022/09/10 10:48:45;;;;;;;8.23;3.92;;;20.80;99.90;;;;;;5047603;28;20082;-80
2022/09/10 10:51:30;;;;;;;9.43;3.75;;;20.80;99.90;;;;;;5076289;28;20044;-80
2022/09/10 10:54:23;;;;;;;6.70;4.30;;;20.80;99.90;;;;;;5067176;28;20044;-80
2022/09/10 10:57:29;;;;;;;6.05;4.38;;;20.80;99.90;;;;;;5077622;28;20040;-80
2022/09/10 11:00:06;;;;;;;8.30;4.03;;;20.80;99.90;;;;;;5072897;28;20051;-80
2022/09/10 11:03:10;;;;;;;8.55;4.30;;;20.70;99.90;;;;;;5070854;28;20043;-81
2022/09/10 11:05:57;;;;;;;4.97;4.47;;;20.70;99.90;;;;;;5074582;28;20076;-81
2022/09/10 11:08:47;;;;;;;6.82;4.10;;;20.70;99.90;;;;;;5055856;28;20152;-80
2022/09/10 11:11:32;;;;;;;4.70;3.45;;;20.90;99.90;;;;;;5066229;28;20041;-80
2022/09/10 11:14:16;;;;;;;3.13;2.22;;;20.90;99.90;;;;;;5076074;28;20128;-80
2022/09/10 11:16:50;;;;;;;7.95;3.00;;;20.90;99.90;;;;;;5075605;28;20048;-79
2022/09/10 11:19:22;;;;;;;4.60;3.17;;;20.90;99.90;;;;;;5059966;28;20558;-80
2022/09/10 11:21:59;;;;;;;6.35;3.00;;;20.90;99.90;;;;;;5075370;28;20373;-80
2022/09/10 11:24:33;;;;;;;5.07;2.90;;;21.10;99.90;;;;;;5055448;28;20041;-81
2022/09/10 11:27:23;;;;;;;5.78;3.42;;;21.10;99.90;;;;;;5071094;28;20032;-80
2022/09/10 11:30:01;;;;;;;6.38;4.45;;;21.20;99.90;;;;;;5053351;28;20067;-79
2022/09/10 11:32:39;;;;;;;7.13;4.22;;;21.20;99.90;;;;;;5045979;28;20091;-79
2022/09/10 11:35:23;;;;;;;5.57;4.70;;;21.20;99.90;;;;;;5034598;28;20045;-80
2022/09/10 11:38:13;;;;;;;6.20;4.70;;;21.10;99.90;;;;;;5034185;28;20044;-82
2022/09/10 11:41:04;;;;;;;8.70;4.40;;;21.00;99.90;;;;;;5049876;28;20083;-80
2022/09/10 11:43:54;;;;;;;6.22;4.18;;;20.90;99.90;;;;;;5071218;28;20037;-81
2022/09/10 11:46:25;;;;;;;6.28;4.65;;;20.90;99.90;;;;;;5071721;28;20076;-76
2022/09/10 11:48:54;;;;;;;8.32;5.20;;;20.90;99.90;;;;;;5070199;28;20037;-75
2022/09/10 11:51:21;;;;;;;7.47;4.85;;;20.90;99.90;;;;;;5067677;28;20552;-76
2022/09/10 11:53:47;;;;;;;8.85;4.78;;;20.90;99.90;;;;;;5052852;28;20489;-76
2022/09/10 11:56:15;;;;;;;8.43;5.30;;;20.80;99.90;;;;;;5070042;28;20048;-76
2022/09/10 11:59:03;;;;;;;8.23;5.05;;;20.80;99.90;;;;;;5069089;28;20488;-76
2022/09/10 12:01:51;;;;;;;7.32;4.22;;;20.90;99.90;;;;;;5069645;28;20044;-76
2022/09/10 12:04:21;;;;;;;7.78;4.30;;;20.90;99.90;;;;;;5069546;28;20080;-76
2022/09/10 12:06:59;;;;;;;8.68;6.50;;;20.80;99.90;;;;;;5069788;28;20044;-75
2022/09/10 12:09:43;;;;;;;6.90;4.88;;;20.80;99.90;;;;;;5069842;28;20516;-74
2022/09/10 12:12:15;;;;;;;7.15;3.70;;;20.80;99.90;;;;;;5071350;28;20045;-80
2022/09/10 12:14:41;;;;;;;10.57;4.50;;;20.70;99.90;;;;;;5074510;28;20052;-80
2022/09/10 12:17:14;;;;;;;6.28;4.28;;;20.80;99.90;;;;;;5056764;28;20041;-79
2022/09/10 12:19:48;;;;;;;8.55;4.65;;;20.80;99.90;;;;;;5072427;28;20040;-79
2022/09/10 12:22:37;;;;;;;7.50;4.15;;;20.80;99.90;;;;;;5073694;28;20055;-79
2022/09/10 12:25:29;;;;;;;6.72;5.03;;;20.90;99.90;;;;;;5056601;28;20058;-80
2022/09/10 12:27:58;;;;;;;9.35;4.30;;;20.90;99.90;;;;;;5066995;28;20059;-80
2022/09/10 12:30:27;;;;;;;4.40;3.80;;;20.90;99.90;;;;;;5072008;28;20460;-79
2022/09/10 12:32:56;;;;;;;5.72;3.85;;;21.00;99.90;;;;;;5072587;28;20067;-80
2022/09/10 12:35:34;;;;;;;6.68;3.80;;;21.00;99.90;;;;;;5055930;28;20044;-80
2022/09/10 12:38:38;;;;;;;5.53;3.50;;;20.90;99.90;;;;;;5072374;28;20040;-80
2022/09/10 12:41:09;;;;;;;9.93;4.43;;;20.90;99.90;;;;;;5056896;28;20079;-80
2022/09/10 12:43:38;;;;;;;11.38;4.80;;;20.80;99.90;;;;;;5055411;28;20048;-80
2022/09/10 12:46:19;;;;;;;6.45;4.00;;;20.70;99.90;;;;;;5054957;28;20131;-80
2022/09/10 12:48:47;;;;;;;4.35;3.42;;;20.60;99.90;;;;;;5072214;28;20475;-80
2022/09/10 12:51:19;;;;;;;5.32;3.45;;;20.60;99.90;;;;;;5071673;28;20154;-79
2022/09/10 12:54:03;;;;;;;5.85;3.10;;;20.60;99.90;;;;;;5072483;28;20037;-80